createdAt,value
2019-04-11T00:01:19.691Z,101973.17
2019-04-11T00:03:51.407Z,101977.14
2019-04-11T00:06:21.836Z,101982.24
2019-04-11T00:08:52.814Z,101979.55
2019-04-11T00:11:23.936Z,101969.96
2019-04-11T00:13:55.721Z,101980.45
2019-04-11T00:16:26.426Z,101980.87
2019-04-11T00:18:56.946Z,101982.64
2019-04-11T00:21:27.286Z,101979.80
2019-04-11T00:23:58.560Z,101985.70
2019-04-11T00:26:30.483Z,101987.27
2019-04-11T00:29:01.767Z,101994.84
2019-04-11T00:31:32.682Z,101995.20
2019-04-11T00:34:04.636Z,101988.66
2019-04-11T00:36:36.756Z,101993.03
2019-04-11T00:39:08.074Z,101990.80
2019-04-11T00:41:38.267Z,101995.52
2019-04-11T00:44:08.510Z,101998.48
2019-04-11T00:46:40.482Z,102009.13
2019-04-11T00:49:10.676Z,102000.77
2019-04-11T00:51:42.245Z,102006.44
2019-04-11T00:54:14.199Z,102011.98
2019-04-11T00:56:44.616Z,102017.27
2019-04-11T00:59:16.234Z,102012.28
2019-04-11T01:01:47.157Z,102015.84
2019-04-11T01:04:17.960Z,102017.64
2019-04-11T01:06:48.104Z,102021.20
2019-04-11T01:09:20.115Z,102028.45
2019-04-11T01:11:50.321Z,102017.03
2019-04-11T01:14:21.597Z,102022.06
2019-04-11T01:16:54.256Z,102019.27
2019-04-11T01:19:26.772Z,102019.92
2019-04-11T01:21:58.009Z,102018.64
2019-04-11T01:24:29.166Z,102020.47
2019-04-11T01:26:59.749Z,102019.02
2019-04-11T01:29:29.981Z,102020.13
2019-04-11T01:32:04.388Z,102023.73
2019-04-11T01:34:35.051Z,102024.48
2019-04-11T01:37:05.432Z,102019.60
2019-04-11T01:39:51.414Z,102015.86
2019-04-11T01:42:22.829Z,102012.73
2019-04-11T01:44:53.172Z,102012.90
2019-04-11T01:47:57.747Z,102016.71
2019-04-11T01:50:32.864Z,102015.41
2019-04-11T01:53:03.669Z,102016.42
2019-04-11T01:55:34.774Z,102017.76
2019-04-11T01:58:07.203Z,102014.62
2019-04-11T02:00:48.682Z,102016.81
2019-04-11T02:03:23.469Z,102020.76
2019-04-11T02:05:53.774Z,102021.70
2019-04-11T02:08:25.030Z,102025.06
2019-04-11T02:10:55.755Z,102025.63
2019-04-11T02:13:28.106Z,102030.92
2019-04-11T02:15:59.857Z,102030.36
2019-04-11T02:18:31.766Z,102028.76
2019-04-11T02:21:03.167Z,102033.48
2019-04-11T02:23:47.669Z,102035.12
2019-04-11T02:26:27.779Z,102037.63
2019-04-11T02:28:59.346Z,102031.74
2019-04-11T02:31:30.600Z,102037.37
2019-04-11T02:34:01.884Z,102035.55
2019-04-11T02:36:34.305Z,102043.02
2019-04-11T02:39:12.863Z,102048.28
2019-04-11T02:41:42.214Z,102042.67
2019-04-11T02:44:33.406Z,102042.66
2019-04-11T02:46:54.466Z,102043.66
2019-04-11T02:49:19.333Z,102052.10
2019-04-11T02:51:53.054Z,102060.23
2019-04-11T02:54:26.226Z,102056.14
2019-04-11T02:56:55.141Z,102054.81
2019-04-11T02:59:27.319Z,102049.78
2019-04-11T03:01:58.908Z,102061.84
2019-04-11T03:04:31.040Z,102058.78
2019-04-11T03:07:03.821Z,102057.05
2019-04-11T03:09:35.363Z,102056.54
2019-04-11T03:12:07.422Z,102058.96
2019-04-11T03:15:01.086Z,102065.58
2019-04-11T03:17:18.889Z,102056.87
2019-04-11T03:19:59.289Z,102062.62
2019-04-11T03:22:20.250Z,102069.73
2019-04-11T03:24:53.361Z,102071.19
2019-04-11T03:27:28.050Z,102069.45
2019-04-11T03:29:57.985Z,102054.63
2019-04-11T03:33:17.179Z,102071.51
2019-04-11T03:40:27.018Z,102067.31
2019-04-11T03:42:55.548Z,102070.87
2019-04-11T03:45:32.547Z,102071.81
2019-04-11T03:47:57.615Z,102068.13
2019-04-11T03:50:18.808Z,102071.05
2019-04-11T03:52:47.007Z,102066.44
2019-04-11T03:55:19.181Z,102073.05
2019-04-11T03:57:51.808Z,102071.13
2019-04-11T04:00:23.741Z,102069.67
2019-04-11T04:02:55.308Z,102076.38
2019-04-11T04:05:30.308Z,102071.51
2019-04-11T04:08:01.329Z,102070.71
2019-04-11T04:10:34.205Z,102074.77
2019-04-11T04:13:09.289Z,102076.28
2019-04-11T04:16:04.988Z,102079.89
2019-04-11T04:18:51.809Z,102093.44
2019-04-11T04:21:36.340Z,102092.33
2019-04-11T04:24:27.758Z,102091.18
2019-04-11T04:26:59.734Z,102098.82
2019-04-11T04:29:32.410Z,102102.33
2019-04-11T04:32:02.983Z,102103.50
2019-04-11T04:34:36.193Z,102109.08
2019-04-11T04:37:07.904Z,102109.61
2019-04-11T04:39:39.976Z,102110.19
2019-04-11T04:42:20.549Z,102111.76
2019-04-11T04:44:44.611Z,102106.21
2019-04-11T04:47:22.346Z,102108.23
2019-04-11T04:49:48.227Z,102110.59
2019-04-11T04:52:20.660Z,102111.70
2019-04-11T04:54:52.873Z,102116.83
2019-04-11T04:57:24.423Z,102117.34
2019-04-11T04:59:55.570Z,102124.95
2019-04-11T05:02:28.128Z,102129.41
2019-04-11T05:04:58.778Z,102132.84
2019-04-11T05:07:32.567Z,102129.20
2019-04-11T05:10:03.320Z,102140.61
2019-04-11T05:12:34.775Z,102137.14
2019-04-11T05:15:05.645Z,102135.20
2019-04-11T05:17:38.707Z,102137.72
2019-04-11T05:20:10.106Z,102138.30
2019-04-11T05:22:41.541Z,102138.25
2019-04-11T05:25:12.613Z,102143.88
2019-04-11T05:27:42.853Z,102143.88
2019-04-11T05:30:13.092Z,102149.13
2019-04-11T05:32:43.482Z,102142.14
2019-04-11T05:35:14.369Z,102155.51
2019-04-11T05:37:45.109Z,102150.18
2019-04-11T05:40:16.794Z,102154.94
2019-04-11T05:42:53.434Z,102162.49
2019-04-11T05:45:22.633Z,102162.98
2019-04-11T05:47:54.991Z,102168.73
2019-04-11T05:50:30.242Z,102159.77
2019-04-11T05:53:03.712Z,102167.62
2019-04-11T05:55:43.263Z,102163.09
2019-04-11T05:58:13.887Z,102163.47
2019-04-11T06:00:53.341Z,102158.91
2019-04-11T06:03:24.045Z,102161.31
2019-04-11T06:06:14.482Z,102165.32
2019-04-11T06:08:46.060Z,102169.59
2019-04-11T06:11:24.161Z,102163.72
2019-04-11T06:14:19.706Z,102171.23
2019-04-11T06:16:55.463Z,102177.16
2019-04-11T06:19:58.682Z,102175.95
2019-04-11T06:22:29.799Z,102176.98
2019-04-11T06:25:25.788Z,102185.86
2019-04-11T06:28:07.071Z,102182.94
2019-04-11T06:30:50.730Z,102184.80
2019-04-11T06:33:30.867Z,102182.77
2019-04-11T06:36:23.459Z,102179.83
2019-04-11T06:39:19.123Z,102177.19
2019-04-11T06:42:12.892Z,102181.55
2019-04-11T06:45:01.986Z,102181.92
2019-04-11T06:47:54.909Z,102189.87
2019-04-11T06:50:51.347Z,102189.23
2019-04-11T06:53:26.249Z,102196.45
2019-04-11T06:56:18.973Z,102191.25
2019-04-11T06:59:08.291Z,102190.73
2019-04-11T07:01:40.522Z,102188.28
2019-04-11T07:04:15.660Z,102197.61
2019-04-11T07:06:48.173Z,102199.41
2019-04-11T07:09:37.192Z,102207.41
2019-04-11T07:12:11.769Z,102202.44
2019-04-11T07:14:45.578Z,102208.25
2019-04-11T07:17:34.531Z,102203.36
2019-04-11T07:20:29.879Z,102210.44
2019-04-11T07:23:18.001Z,102213.31
2019-04-11T07:25:55.903Z,102219.56
2019-04-11T07:28:39.998Z,102224.55
2019-04-11T07:31:29.843Z,102222.09
2019-04-11T07:34:21.186Z,102219.31
2019-04-11T07:37:10.447Z,102223.13
2019-04-11T07:40:07.413Z,102224.96
2019-04-11T07:42:59.295Z,102227.39
2019-04-11T07:45:32.265Z,102225.28
2019-04-11T07:48:27.783Z,102227.49
2019-04-11T07:51:09.166Z,102226.11
2019-04-11T07:53:43.721Z,102225.16
2019-04-11T07:56:29.606Z,102228.44
2019-04-11T07:59:02.987Z,102234.47
2019-04-11T08:02:01.620Z,102233.72
2019-04-11T08:04:49.993Z,102229.69
2019-04-11T08:07:40.455Z,102237.23
2019-04-11T08:10:16.468Z,102244.13
2019-04-11T08:12:47.954Z,102249.17
2019-04-11T08:15:42.437Z,102253.48
2019-04-11T08:18:21.668Z,102254.31
2019-04-11T08:21:12.170Z,102254.83
2019-04-11T08:23:44.229Z,102256.94
2019-04-11T08:26:33.980Z,102252.23
2019-04-11T08:29:11.618Z,102257.59
2019-04-11T08:31:56.700Z,102260.09
2019-04-11T08:34:31.239Z,102260.63
2019-04-11T08:37:27.570Z,102258.52
2019-04-11T08:39:59.582Z,102262.72
2019-04-11T08:43:04.650Z,102252.06
2019-04-11T08:45:36.724Z,102259.50
2019-04-11T08:48:08.841Z,102255.50
2019-04-11T08:50:42.799Z,102257.53
2019-04-11T08:53:47.405Z,102267.28
2019-04-11T08:56:19.004Z,102256.25
2019-04-11T08:59:35.805Z,102264.17
2019-04-11T09:02:07.196Z,102259.38
2019-04-11T09:05:04.995Z,102261.63
2019-04-11T09:07:32.243Z,102262.80
2019-04-11T09:10:20.540Z,102253.28
2019-04-11T09:12:58.552Z,102258.12
2019-04-11T09:15:46.758Z,102261.18
2019-04-11T09:18:17.748Z,102256.13
2019-04-11T09:21:22.462Z,102254.02
2019-04-11T09:23:54.299Z,102257.26
2019-04-11T09:26:47.867Z,102249.32
2019-04-11T09:29:18.842Z,102243.71
2019-04-11T09:32:09.741Z,102247.53
2019-04-11T09:35:03.665Z,102247.59
2019-04-11T09:37:36.222Z,102244.23
2019-04-11T09:40:28.025Z,102247.76
2019-04-11T09:43:16.047Z,102248.09
2019-04-11T09:46:04.017Z,102246.72
2019-04-11T09:49:06.561Z,102249.73
2019-04-11T09:51:44.270Z,102250.02
2019-04-11T09:54:23.960Z,102244.27
2019-04-11T09:57:16.470Z,102244.80
2019-04-11T10:00:22.870Z,102249.14
2019-04-11T10:02:58.650Z,102248.93
2019-04-11T10:05:52.269Z,102251.42
2019-04-11T10:08:43.709Z,102256.26
2019-04-11T10:11:32.528Z,102252.97
2019-04-11T10:14:09.299Z,102252.27
2019-04-11T10:17:08.982Z,102256.97
2019-04-11T10:19:48.449Z,102251.75
2019-04-11T10:22:40.496Z,102254.02
2019-04-11T10:25:17.489Z,102253.61
2019-04-11T10:28:09.499Z,102259.45
2019-04-11T10:30:57.999Z,102261.02
2019-04-11T10:33:39.268Z,102258.62
2019-04-11T10:36:21.428Z,102262.42
2019-04-11T10:39:00.540Z,102260.87
2019-04-11T10:41:34.578Z,102263.69
2019-04-11T10:44:05.641Z,102269.76
2019-04-11T10:46:49.572Z,102269.39
2019-04-11T10:49:40.439Z,102273.60
2019-04-11T10:52:30.838Z,102257.81
2019-04-11T10:55:07.420Z,102261.39
2019-04-11T10:57:44.463Z,102265.73
2019-04-11T11:00:27.205Z,102268.78
2019-04-11T11:03:22.448Z,102261.28
2019-04-11T11:05:55.718Z,102262.37
2019-04-11T11:08:33.593Z,102261.20
2019-04-11T11:11:11.777Z,102259.88
2019-04-11T11:14:04.551Z,102262.48
2019-04-11T11:16:44.995Z,102257.02
2019-04-11T11:19:45.751Z,102263.55
2019-04-11T11:22:23.797Z,102264.37
2019-04-11T11:25:26.739Z,102254.05
2019-04-11T11:27:57.894Z,102261.50
2019-04-11T11:30:50.188Z,102265.77
2019-04-11T11:33:25.240Z,102262.81
2019-04-11T11:36:34.950Z,102265.60
2019-04-11T11:39:15.168Z,102267.92
2019-04-11T11:42:04.098Z,102262.88
2019-04-11T11:44:51.213Z,102263.48
2019-04-11T11:47:40.417Z,102263.69
2019-04-11T11:50:17.912Z,102262.75
2019-04-11T11:53:07.364Z,102265.48
2019-04-11T11:55:38.748Z,102272.38
2019-04-11T11:58:37.527Z,102273.05
2019-04-11T12:01:09.347Z,102281.77
2019-04-11T12:04:01.316Z,102284.27
2019-04-11T12:06:31.459Z,102283.98
2019-04-11T12:09:20.382Z,102286.22
2019-04-11T12:11:55.575Z,102284.72
2019-04-11T12:14:55.792Z,102280.73
2019-04-11T12:17:45.114Z,102286.72
2019-04-11T12:20:25.211Z,102285.95
2019-04-11T12:22:56.971Z,102287.43
2019-04-11T12:25:31.786Z,102281.70
2019-04-11T12:28:35.911Z,102281.25
2019-04-11T12:31:09.293Z,102281.88
2019-04-11T12:34:14.329Z,102282.15
2019-04-11T12:36:48.002Z,102284.11
2019-04-11T12:39:35.869Z,102273.21
2019-04-11T12:42:31.266Z,102282.06
2019-04-11T12:45:32.828Z,102272.58
2019-04-11T12:48:03.793Z,102276.67
2019-04-11T12:50:54.018Z,102281.58
2019-04-11T12:53:26.532Z,102281.91
2019-04-11T12:56:34.088Z,102279.84
2019-04-11T12:59:07.736Z,102279.92
2019-04-11T13:02:03.325Z,102276.84
2019-04-11T13:04:36.257Z,102270.80
2019-04-11T13:07:31.785Z,102282.09
2019-04-11T13:10:15.834Z,102278.13
2019-04-11T13:13:20.311Z,102279.45
2019-04-11T13:16:19.004Z,102272.44
2019-04-11T13:19:08.169Z,102277.86
2019-04-11T13:21:43.005Z,102277.16
2019-04-11T13:24:38.845Z,102276.05
2019-04-11T13:27:26.780Z,102279.00
2019-04-11T13:30:17.055Z,102281.56
2019-04-11T13:32:57.414Z,102286.05
2019-04-11T13:36:04.863Z,102287.94
2019-04-11T13:38:39.271Z,102280.69
2019-04-11T13:41:20.148Z,102283.73
2019-04-11T13:44:09.646Z,102278.52
2019-04-11T13:46:57.982Z,102275.73
2019-04-11T13:49:45.825Z,102280.98
2019-04-11T13:52:35.425Z,102278.31
2019-04-11T13:55:27.872Z,102285.45
2019-04-11T13:58:17.200Z,102274.61
2019-04-11T14:00:49.872Z,102280.64
2019-04-11T14:03:48.160Z,102278.64
2019-04-11T14:06:37.655Z,102275.71
2019-04-11T14:09:37.905Z,102273.23
2019-04-11T14:12:12.979Z,102274.14
2019-04-11T14:15:06.067Z,102268.64
2019-04-11T14:18:05.823Z,102274.80
2019-04-11T14:20:42.652Z,102268.59
2019-04-11T14:23:35.207Z,102265.95
2019-04-11T14:26:28.644Z,102264.91
2019-04-11T14:29:17.141Z,102267.95
2019-04-11T14:31:54.721Z,102269.48
2019-04-11T14:34:50.035Z,102266.91
2019-04-11T14:37:38.455Z,102266.82
2019-04-11T14:40:13.429Z,102273.77
2019-04-11T14:43:03.195Z,102263.91
2019-04-11T14:46:06.878Z,102265.72
2019-04-11T14:48:49.155Z,102261.64
2019-04-11T14:51:54.522Z,102268.08
2019-04-11T14:54:31.090Z,102280.64
2019-04-11T14:57:12.859Z,102273.11
2019-04-11T14:59:54.128Z,102263.66
2019-04-11T15:02:50.063Z,102269.20
2019-04-11T15:05:39.283Z,102269.48
2019-04-11T15:08:12.460Z,102272.75
2019-04-11T15:11:01.683Z,102270.90
2019-04-11T15:13:32.804Z,102273.22
2019-04-11T15:16:23.558Z,102271.73
2019-04-11T15:19:02.113Z,102275.83
2019-04-11T15:22:10.103Z,102278.19
2019-04-11T15:24:41.314Z,102275.77
2019-04-11T15:27:29.080Z,102267.66
2019-04-11T15:30:00.816Z,102278.27
2019-04-11T15:32:51.147Z,102270.93
2019-04-11T15:35:21.888Z,102275.36
2019-04-11T15:38:00.725Z,102280.16
2019-04-11T15:40:42.424Z,102267.84
2019-04-11T15:43:42.237Z,102271.97
2019-04-11T15:46:29.992Z,102260.96
2019-04-11T15:49:30.460Z,102266.81
2019-04-11T15:52:27.543Z,102270.25
2019-04-11T15:55:23.313Z,102267.13
2019-04-11T15:57:56.541Z,102271.81
2019-04-11T16:01:04.259Z,102269.41
2019-04-11T16:03:35.540Z,102260.95
2019-04-11T16:06:23.719Z,102269.89
2019-04-11T16:09:01.806Z,102269.28
2019-04-11T16:11:53.947Z,102278.64
2019-04-11T16:14:43.828Z,102277.43
2019-04-11T16:17:37.402Z,102275.02
2019-04-11T16:20:26.512Z,102279.56
2019-04-11T16:23:25.826Z,102275.42
2019-04-11T16:25:57.310Z,102278.40
2019-04-11T16:28:45.865Z,102295.29
2019-04-11T16:31:16.132Z,102290.45
2019-04-11T16:34:08.083Z,102290.05
2019-04-11T16:36:53.799Z,102292.95
2019-04-11T16:39:49.985Z,102293.05
2019-04-11T16:42:34.453Z,102291.56
2019-04-11T16:45:24.706Z,102293.97
2019-04-11T16:48:02.864Z,102287.17
2019-04-11T16:50:33.945Z,102295.47
2019-04-11T16:53:04.152Z,102296.95
2019-04-11T16:55:36.746Z,102292.82
2019-04-11T16:58:07.009Z,102301.02
2019-04-11T17:00:39.356Z,102293.61
2019-04-11T17:03:09.678Z,102303.64
2019-04-11T17:05:42.669Z,102300.57
2019-04-11T17:08:48.373Z,102302.31
2019-04-11T17:11:19.912Z,102305.27
2019-04-11T17:13:50.640Z,102309.72
2019-04-11T17:16:22.216Z,102312.18
2019-04-11T17:18:52.982Z,102314.75
2019-04-11T17:21:23.533Z,102312.18
2019-04-11T17:23:53.869Z,102318.56
2019-04-11T17:26:24.385Z,102317.87
2019-04-11T17:28:55.307Z,102320.52
2019-04-11T17:31:26.662Z,102322.88
2019-04-11T17:34:01.517Z,102325.22
2019-04-11T17:36:30.746Z,102334.18
2019-04-11T17:39:01.681Z,102332.02
2019-04-11T17:41:49.930Z,102336.69
2019-04-11T17:44:21.293Z,102335.78
2019-04-11T17:46:51.716Z,102338.91
2019-04-11T17:49:22.598Z,102343.71
2019-04-11T17:51:56.128Z,102345.00
2019-04-11T17:54:25.585Z,102340.97
2019-04-11T17:56:58.849Z,102344.17
2019-04-11T17:59:29.090Z,102349.56
2019-04-11T18:01:59.992Z,102348.63
2019-04-11T18:04:30.634Z,102347.61
2019-04-11T18:07:01.292Z,102342.67
2019-04-11T18:09:32.087Z,102349.80
2019-04-11T18:12:02.391Z,102352.87
2019-04-11T18:14:33.650Z,102356.55
2019-04-11T18:17:04.888Z,102358.47
2019-04-11T18:19:36.237Z,102363.37
2019-04-11T18:22:08.487Z,102361.59
2019-04-11T18:24:39.229Z,102368.25
2019-04-11T18:27:09.518Z,102365.25
2019-04-11T18:29:40.335Z,102368.01
2019-04-11T18:32:11.186Z,102376.60
2019-04-11T18:34:41.422Z,102368.44
2019-04-11T18:37:12.229Z,102377.59
2019-04-11T18:39:46.889Z,102371.66
2019-04-11T18:42:18.266Z,102376.98
2019-04-11T18:44:48.741Z,102380.23
2019-04-11T18:47:20.035Z,102377.58
2019-04-11T18:49:53.273Z,102380.53
2019-04-11T18:52:25.091Z,102384.31
2019-04-11T18:54:55.872Z,102383.19
2019-04-11T18:57:26.977Z,102383.34
2019-04-11T18:59:57.663Z,102388.67
2019-04-11T19:02:28.541Z,102388.41
2019-04-11T19:04:59.135Z,102394.81
2019-04-11T19:07:29.828Z,102387.30
2019-04-11T19:10:00.174Z,102390.39
2019-04-11T19:12:30.862Z,102388.89
2019-04-11T19:15:01.524Z,102397.36
2019-04-11T19:17:31.781Z,102396.27
2019-04-11T19:20:02.433Z,102390.52
2019-04-11T19:22:37.593Z,102390.75
2019-04-11T19:25:06.833Z,102394.91
2019-04-11T19:27:37.542Z,102397.38
2019-04-11T19:30:09.085Z,102393.89
2019-04-11T19:32:39.714Z,102394.73
2019-04-11T19:35:11.387Z,102394.27
2019-04-11T19:37:42.673Z,102396.50
2019-04-11T19:40:16.171Z,102396.16
2019-04-11T19:42:48.774Z,102396.95
2019-04-11T19:45:19.606Z,102397.86
2019-04-11T19:47:52.206Z,102394.73
2019-04-11T19:50:22.010Z,102392.91
2019-04-11T19:52:52.236Z,102395.06
2019-04-11T19:55:39.886Z,102397.97
2019-04-11T19:58:10.277Z,102395.81
2019-04-11T20:00:40.791Z,102396.50
2019-04-11T20:03:11.583Z,102401.53
2019-04-11T20:05:42.249Z,102398.97
2019-04-11T20:08:14.022Z,102401.80
2019-04-11T20:10:44.757Z,102405.77
2019-04-11T20:13:15.541Z,102404.59
2019-04-11T20:15:46.205Z,102410.23
2019-04-11T20:18:20.014Z,102401.42
2019-04-11T20:20:52.207Z,102398.70
2019-04-11T20:23:22.152Z,102403.91
2019-04-11T20:25:52.793Z,102408.00
2019-04-11T20:28:23.534Z,102404.59
2019-04-11T20:30:55.772Z,102408.88
2019-04-11T20:33:27.756Z,102402.33
2019-04-11T20:35:59.389Z,102407.73
2019-04-11T20:38:30.165Z,102408.41
2019-04-11T20:41:00.779Z,102407.66
2019-04-11T20:43:32.294Z,102406.26
2019-04-11T20:46:02.920Z,102408.83
2019-04-11T20:48:35.201Z,102407.81
2019-04-11T20:51:07.288Z,102409.92
2019-04-11T20:53:38.013Z,102406.41
2019-04-11T20:56:09.959Z,102405.42
2019-04-11T20:58:43.353Z,102407.28
2019-04-11T21:01:14.416Z,102402.36
2019-04-11T21:03:45.146Z,102405.95
2019-04-11T21:06:15.452Z,102402.63
2019-04-11T21:08:49.987Z,102408.64
2019-04-11T21:11:21.048Z,102413.66
2019-04-11T21:13:51.299Z,102409.73
2019-04-11T21:16:22.670Z,102410.46
2019-04-11T21:18:54.494Z,102410.39
2019-04-11T21:21:25.802Z,102411.26
2019-04-11T21:23:57.997Z,102411.03
2019-04-11T21:26:28.874Z,102412.01
2019-04-11T21:29:00.560Z,102412.39
2019-04-11T21:31:32.057Z,102410.52
2019-04-11T21:34:03.317Z,102407.91
2019-04-11T21:36:33.665Z,102409.92
2019-04-11T21:39:05.426Z,102414.34
2019-04-11T21:41:37.152Z,102413.37
2019-04-11T21:44:07.575Z,102413.44
2019-04-11T21:46:41.764Z,102411.31
2019-04-11T21:49:10.982Z,102410.38
2019-04-11T21:51:42.579Z,102410.00
2019-04-11T21:54:14.940Z,102418.00
2019-04-11T21:56:49.262Z,102413.58
2019-04-11T21:59:20.354Z,102409.55
2019-04-11T22:01:53.895Z,102417.03
2019-04-11T22:04:26.930Z,102416.30
2019-04-11T22:06:54.766Z,102423.23
2019-04-11T22:09:25.595Z,102419.16
2019-04-11T22:11:55.835Z,102423.37
2019-04-11T22:14:26.488Z,102417.17
2019-04-11T22:16:57.751Z,102421.73
2019-04-11T22:19:28.412Z,102421.73
2019-04-11T22:21:58.685Z,102426.87
2019-04-11T22:24:30.287Z,102429.49
2019-04-11T22:27:00.994Z,102430.59
2019-04-11T22:29:31.354Z,102430.23
2019-04-11T22:32:04.325Z,102429.55
2019-04-11T22:34:41.168Z,102428.50
2019-04-11T22:37:12.744Z,102430.17
2019-04-11T22:39:43.211Z,102432.11
2019-04-11T22:42:13.805Z,102432.62
2019-04-11T22:44:44.907Z,102431.20
2019-04-11T22:47:15.190Z,102436.37
2019-04-11T22:49:45.990Z,102436.43
2019-04-11T22:52:16.657Z,102432.02
2019-04-11T22:54:47.509Z,102439.95
2019-04-11T22:57:18.944Z,102435.43
2019-04-11T22:59:49.489Z,102434.53
2019-04-11T23:02:30.531Z,102439.66
2019-04-11T23:05:03.155Z,102445.09
2019-04-11T23:07:33.429Z,102442.60
2019-04-11T23:10:03.786Z,102444.31
2019-04-11T23:12:34.059Z,102445.09
2019-04-11T23:15:06.395Z,102443.89
2019-04-11T23:17:38.037Z,102449.60
2019-04-11T23:20:08.730Z,102444.97
2019-04-11T23:22:40.049Z,102443.37
2019-04-11T23:25:11.688Z,102441.14
2019-04-11T23:27:41.903Z,102442.47
2019-04-11T23:30:15.991Z,102445.62
2019-04-11T23:32:50.805Z,102446.83
2019-04-11T23:35:21.143Z,102445.90
2019-04-11T23:37:52.295Z,102441.73
2019-04-11T23:40:22.644Z,102435.98
2019-04-11T23:42:52.864Z,102440.08
2019-04-11T23:45:26.149Z,102435.22
2019-04-11T23:47:56.471Z,102436.67
2019-04-11T23:50:26.691Z,102447.22
2019-04-11T23:52:58.154Z,102447.77
2019-04-11T23:55:30.681Z,102446.27
2019-04-11T23:58:02.217Z,102445.52
